sensor_id;sensor_type;location;lat;lon;timestamp;P1;durP1;ratioP1;P2;durP2;ratioP2
69730;SDS011;56996;48.138;11.538;2023-02-19T00:01:44;4.00;;;1.00;;
69730;SDS011;56996;48.138;11.538;2023-02-19T00:06:42;4.20;;;1.10;;
69730;SDS011;56996;48.138;11.538;2023-02-19T00:09:12;3.60;;;1.00;;
69730;SDS011;56996;48.138;11.538;2023-02-19T00:11:40;4.40;;;1.10;;
69730;SDS011;56996;48.138;11.538;2023-02-19T00:14:09;4.50;;;1.00;;
69730;SDS011;56996;48.138;11.538;2023-02-19T00:16:38;4.10;;;1.00;;
69730;SDS011;56996;48.138;11.538;2023-02-19T00:19:07;4.90;;;1.20;;
69730;SDS011;56996;48.138;11.538;2023-02-19T00:21:40;4.80;;;1.20;;
69730;SDS011;56996;48.138;11.538;2023-02-19T00:24:10;3.40;;;0.90;;
69730;SDS011;56996;48.138;11.538;2023-02-19T00:26:39;3.90;;;1.10;;
69730;SDS011;56996;48.138;11.538;2023-02-19T00:29:06;4.40;;;1.10;;
69730;SDS011;56996;48.138;11.538;2023-02-19T00:31:34;4.00;;;1.10;;
69730;SDS011;56996;48.138;11.538;2023-02-19T00:34:04;3.60;;;1.00;;
69730;SDS011;56996;48.138;11.538;2023-02-19T00:36:33;4.80;;;1.30;;
69730;SDS011;56996;48.138;11.538;2023-02-19T00:39:04;2.60;;;0.70;;
69730;SDS011;56996;48.138;11.538;2023-02-19T00:41:32;5.10;;;1.10;;
69730;SDS011;56996;48.138;11.538;2023-02-19T00:44:06;3.20;;;0.70;;
69730;SDS011;56996;48.138;11.538;2023-02-19T00:46:37;5.50;;;1.10;;
69730;SDS011;56996;48.138;11.538;2023-02-19T00:49:21;4.30;;;1.00;;
69730;SDS011;56996;48.138;11.538;2023-02-19T00:51:50;5.50;;;1.00;;
69730;SDS011;56996;48.138;11.538;2023-02-19T00:54:19;3.20;;;0.90;;
69730;SDS011;56996;48.138;11.538;2023-02-19T00:56:48;5.00;;;1.10;;
69730;SDS011;56996;48.138;11.538;2023-02-19T00:59:15;6.40;;;0.90;;
69730;SDS011;56996;48.138;11.538;2023-02-19T01:01:42;4.00;;;1.00;;
69730;SDS011;56996;48.138;11.538;2023-02-19T01:04:10;3.50;;;0.90;;
69730;SDS011;56996;48.138;11.538;2023-02-19T01:06:37;3.60;;;0.80;;
69730;SDS011;56996;48.138;11.538;2023-02-19T01:09:04;4.70;;;1.10;;
69730;SDS011;56996;48.138;11.538;2023-02-19T01:11:33;3.30;;;1.00;;
69730;SDS011;56996;48.138;11.538;2023-02-19T01:14:00;4.20;;;1.10;;
69730;SDS011;56996;48.138;11.538;2023-02-19T01:16:28;4.90;;;1.20;;
69730;SDS011;56996;48.138;11.538;2023-02-19T01:18:56;4.40;;;1.10;;
69730;SDS011;56996;48.138;11.538;2023-02-19T01:21:25;3.80;;;1.10;;
69730;SDS011;56996;48.138;11.538;2023-02-19T01:23:53;5.10;;;1.10;;
69730;SDS011;56996;48.138;11.538;2023-02-19T01:26:23;4.20;;;1.20;;
69730;SDS011;56996;48.138;11.538;2023-02-19T01:28:52;3.80;;;1.00;;
69730;SDS011;56996;48.138;11.538;2023-02-19T01:31:21;4.10;;;1.00;;
69730;SDS011;56996;48.138;11.538;2023-02-19T01:33:54;5.10;;;1.10;;
69730;SDS011;56996;48.138;11.538;2023-02-19T01:36:24;4.50;;;1.00;;
69730;SDS011;56996;48.138;11.538;2023-02-19T01:38:51;3.60;;;0.90;;
69730;SDS011;56996;48.138;11.538;2023-02-19T01:41:22;5.40;;;1.20;;
69730;SDS011;56996;48.138;11.538;2023-02-19T01:46:44;4.90;;;1.00;;
69730;SDS011;56996;48.138;11.538;2023-02-19T01:51:58;4.30;;;0.90;;
69730;SDS011;56996;48.138;11.538;2023-02-19T01:54:31;4.50;;;1.00;;
69730;SDS011;56996;48.138;11.538;2023-02-19T01:57:01;4.10;;;0.90;;
69730;SDS011;56996;48.138;11.538;2023-02-19T01:59:39;4.20;;;1.00;;
69730;SDS011;56996;48.138;11.538;2023-02-19T02:02:07;3.70;;;1.00;;
69730;SDS011;56996;48.138;11.538;2023-02-19T02:04:34;4.10;;;1.20;;
69730;SDS011;56996;48.138;11.538;2023-02-19T02:07:03;4.70;;;1.10;;
69730;SDS011;56996;48.138;11.538;2023-02-19T02:09:54;4.80;;;1.10;;
69730;SDS011;56996;48.138;11.538;2023-02-19T02:12:40;3.90;;;1.00;;
69730;SDS011;56996;48.138;11.538;2023-02-19T02:15:07;4.40;;;1.10;;
69730;SDS011;56996;48.138;11.538;2023-02-19T02:17:58;4.30;;;1.10;;
69730;SDS011;56996;48.138;11.538;2023-02-19T02:33:20;4.90;;;1.40;;
69730;SDS011;56996;48.138;11.538;2023-02-19T02:35:56;4.40;;;1.10;;
69730;SDS011;56996;48.138;11.538;2023-02-19T02:38:29;4.40;;;1.20;;
69730;SDS011;56996;48.138;11.538;2023-02-19T02:40:57;5.40;;;1.50;;
69730;SDS011;56996;48.138;11.538;2023-02-19T02:43:24;4.80;;;1.20;;
69730;SDS011;56996;48.138;11.538;2023-02-19T02:45:52;4.80;;;1.50;;
69730;SDS011;56996;48.138;11.538;2023-02-19T02:48:35;3.60;;;1.10;;
69730;SDS011;56996;48.138;11.538;2023-02-19T02:54:44;5.30;;;1.30;;
69730;SDS011;56996;48.138;11.538;2023-02-19T02:57:30;5.20;;;1.50;;
69730;SDS011;56996;48.138;11.538;2023-02-19T02:59:57;5.30;;;1.40;;
69730;SDS011;56996;48.138;11.538;2023-02-19T03:02:27;4.30;;;1.20;;
69730;SDS011;56996;48.138;11.538;2023-02-19T03:05:06;4.30;;;1.40;;
69730;SDS011;56996;48.138;11.538;2023-02-19T03:07:59;4.60;;;1.30;;
69730;SDS011;56996;48.138;11.538;2023-02-19T03:10:35;4.50;;;1.20;;
69730;SDS011;56996;48.138;11.538;2023-02-19T03:13:09;5.40;;;1.30;;
69730;SDS011;56996;48.138;11.538;2023-02-19T03:16:02;4.40;;;1.40;;
69730;SDS011;56996;48.138;11.538;2023-02-19T03:18:53;6.80;;;1.40;;
69730;SDS011;56996;48.138;11.538;2023-02-19T03:21:42;4.30;;;1.40;;
69730;SDS011;56996;48.138;11.538;2023-02-19T03:24:13;4.80;;;1.50;;
69730;SDS011;56996;48.138;11.538;2023-02-19T03:27:01;5.40;;;1.50;;
69730;SDS011;56996;48.138;11.538;2023-02-19T03:29:36;4.70;;;1.40;;
69730;SDS011;56996;48.138;11.538;2023-02-19T03:32:23;4.00;;;1.20;;
69730;SDS011;56996;48.138;11.538;2023-02-19T03:35:00;6.60;;;1.80;;
69730;SDS011;56996;48.138;11.538;2023-02-19T03:37:36;4.80;;;1.20;;
69730;SDS011;56996;48.138;11.538;2023-02-19T03:40:05;5.70;;;1.60;;
69730;SDS011;56996;48.138;11.538;2023-02-19T03:45:55;4.70;;;1.20;;
69730;SDS011;56996;48.138;11.538;2023-02-19T03:48:32;5.10;;;1.10;;
69730;SDS011;56996;48.138;11.538;2023-02-19T03:51:23;6.20;;;1.50;;
69730;SDS011;56996;48.138;11.538;2023-02-19T03:59:49;4.90;;;1.40;;
69730;SDS011;56996;48.138;11.538;2023-02-19T04:02:32;5.40;;;1.50;;
69730;SDS011;56996;48.138;11.538;2023-02-19T04:05:12;4.80;;;1.50;;
69730;SDS011;56996;48.138;11.538;2023-02-19T04:07:45;6.40;;;1.90;;
69730;SDS011;56996;48.138;11.538;2023-02-19T04:10:14;5.40;;;1.30;;
69730;SDS011;56996;48.138;11.538;2023-02-19T04:12:47;4.90;;;1.40;;
69730;SDS011;56996;48.138;11.538;2023-02-19T04:15:21;4.70;;;1.40;;
69730;SDS011;56996;48.138;11.538;2023-02-19T04:17:55;4.60;;;1.40;;
69730;SDS011;56996;48.138;11.538;2023-02-19T04:20:30;4.80;;;1.50;;
69730;SDS011;56996;48.138;11.538;2023-02-19T04:23:02;5.50;;;1.50;;
69730;SDS011;56996;48.138;11.538;2023-02-19T04:25:29;5.10;;;1.50;;
69730;SDS011;56996;48.138;11.538;2023-02-19T04:27:57;3.70;;;1.00;;
69730;SDS011;56996;48.138;11.538;2023-02-19T04:30:24;4.50;;;1.40;;
69730;SDS011;56996;48.138;11.538;2023-02-19T04:32:51;6.10;;;1.30;;
69730;SDS011;56996;48.138;11.538;2023-02-19T04:35:17;6.50;;;1.80;;
69730;SDS011;56996;48.138;11.538;2023-02-19T04:37:44;5.10;;;1.20;;
69730;SDS011;56996;48.138;11.538;2023-02-19T04:40:11;4.40;;;1.30;;
69730;SDS011;56996;48.138;11.538;2023-02-19T04:42:37;4.80;;;1.20;;
69730;SDS011;56996;48.138;11.538;2023-02-19T04:45:04;5.70;;;1.40;;
69730;SDS011;56996;48.138;11.538;2023-02-19T04:47:31;4.70;;;1.30;;
69730;SDS011;56996;48.138;11.538;2023-02-19T04:49:58;4.60;;;1.40;;
69730;SDS011;56996;48.138;11.538;2023-02-19T04:52:25;4.80;;;1.30;;
69730;SDS011;56996;48.138;11.538;2023-02-19T04:54:51;5.20;;;1.30;;
69730;SDS011;56996;48.138;11.538;2023-02-19T04:57:18;5.30;;;1.30;;
69730;SDS011;56996;48.138;11.538;2023-02-19T04:59:45;5.00;;;1.20;;
69730;SDS011;56996;48.138;11.538;2023-02-19T05:02:12;4.20;;;0.80;;
69730;SDS011;56996;48.138;11.538;2023-02-19T05:04:40;5.00;;;1.30;;
69730;SDS011;56996;48.138;11.538;2023-02-19T05:07:07;3.40;;;0.90;;
69730;SDS011;56996;48.138;11.538;2023-02-19T05:09:33;5.40;;;1.60;;
69730;SDS011;56996;48.138;11.538;2023-02-19T05:12:00;6.30;;;1.60;;
69730;SDS011;56996;48.138;11.538;2023-02-19T05:14:27;6.10;;;1.50;;
69730;SDS011;56996;48.138;11.538;2023-02-19T05:16:53;4.50;;;1.00;;
69730;SDS011;56996;48.138;11.538;2023-02-19T05:19:20;4.80;;;1.40;;
69730;SDS011;56996;48.138;11.538;2023-02-19T05:21:47;5.40;;;0.90;;
69730;SDS011;56996;48.138;11.538;2023-02-19T05:24:13;3.70;;;1.00;;
69730;SDS011;56996;48.138;11.538;2023-02-19T05:26:40;4.20;;;1.20;;
69730;SDS011;56996;48.138;11.538;2023-02-19T05:29:10;4.30;;;1.30;;
69730;SDS011;56996;48.138;11.538;2023-02-19T05:31:37;4.90;;;1.20;;
69730;SDS011;56996;48.138;11.538;2023-02-19T05:34:03;5.10;;;1.20;;
69730;SDS011;56996;48.138;11.538;2023-02-19T05:36:30;4.00;;;1.20;;
69730;SDS011;56996;48.138;11.538;2023-02-19T05:38:57;4.30;;;1.10;;
69730;SDS011;56996;48.138;11.538;2023-02-19T05:41:26;4.30;;;1.20;;
69730;SDS011;56996;48.138;11.538;2023-02-19T05:43:55;4.20;;;1.10;;
69730;SDS011;56996;48.138;11.538;2023-02-19T05:46:25;4.50;;;1.20;;
69730;SDS011;56996;48.138;11.538;2023-02-19T05:48:55;4.70;;;1.30;;
69730;SDS011;56996;48.138;11.538;2023-02-19T05:51:24;4.30;;;1.10;;
69730;SDS011;56996;48.138;11.538;2023-02-19T05:53:52;4.20;;;1.10;;
69730;SDS011;56996;48.138;11.538;2023-02-19T05:56:25;4.20;;;0.90;;
69730;SDS011;56996;48.138;11.538;2023-02-19T05:58:53;5.20;;;1.30;;
69730;SDS011;56996;48.138;11.538;2023-02-19T06:01:22;3.50;;;0.90;;
69730;SDS011;56996;48.138;11.538;2023-02-19T06:03:51;5.20;;;1.20;;
69730;SDS011;56996;48.138;11.538;2023-02-19T06:06:21;5.60;;;1.30;;
69730;SDS011;56996;48.138;11.538;2023-02-19T06:08:49;5.20;;;1.20;;
69730;SDS011;56996;48.138;11.538;2023-02-19T06:11:16;4.20;;;1.10;;
69730;SDS011;56996;48.138;11.538;2023-02-19T06:13:44;3.70;;;1.10;;
69730;SDS011;56996;48.138;11.538;2023-02-19T06:16:11;4.20;;;1.30;;
69730;SDS011;56996;48.138;11.538;2023-02-19T06:18:38;4.70;;;1.30;;
69730;SDS011;56996;48.138;11.538;2023-02-19T06:21:08;4.90;;;1.30;;
69730;SDS011;56996;48.138;11.538;2023-02-19T06:23:37;4.40;;;1.30;;
69730;SDS011;56996;48.138;11.538;2023-02-19T06:26:10;4.80;;;1.30;;
69730;SDS011;56996;48.138;11.538;2023-02-19T06:28:40;5.10;;;0.90;;
69730;SDS011;56996;48.138;11.538;2023-02-19T06:31:08;5.50;;;1.30;;
69730;SDS011;56996;48.138;11.538;2023-02-19T06:33:37;5.10;;;1.30;;
69730;SDS011;56996;48.138;11.538;2023-02-19T06:36:11;4.40;;;1.20;;
69730;SDS011;56996;48.138;11.538;2023-02-19T06:38:39;4.70;;;1.30;;
69730;SDS011;56996;48.138;11.538;2023-02-19T06:41:08;4.00;;;1.00;;
69730;SDS011;56996;48.138;11.538;2023-02-19T06:43:36;4.00;;;1.20;;
69730;SDS011;56996;48.138;11.538;2023-02-19T06:46:05;4.20;;;0.90;;
69730;SDS011;56996;48.138;11.538;2023-02-19T06:48:32;4.70;;;1.20;;
69730;SDS011;56996;48.138;11.538;2023-02-19T06:51:00;4.80;;;1.10;;
69730;SDS011;56996;48.138;11.538;2023-02-19T06:53:26;5.00;;;1.20;;
69730;SDS011;56996;48.138;11.538;2023-02-19T06:55:58;4.10;;;1.10;;
69730;SDS011;56996;48.138;11.538;2023-02-19T06:58:27;4.80;;;1.30;;
69730;SDS011;56996;48.138;11.538;2023-02-19T07:00:54;4.70;;;1.40;;
69730;SDS011;56996;48.138;11.538;2023-02-19T07:03:21;5.10;;;1.40;;
69730;SDS011;56996;48.138;11.538;2023-02-19T07:05:49;4.40;;;1.30;;
69730;SDS011;56996;48.138;11.538;2023-02-19T07:08:16;4.40;;;1.30;;
69730;SDS011;56996;48.138;11.538;2023-02-19T07:10:43;4.90;;;1.40;;
69730;SDS011;56996;48.138;11.538;2023-02-19T07:13:11;4.20;;;1.10;;
69730;SDS011;56996;48.138;11.538;2023-02-19T07:15:37;3.60;;;1.20;;
69730;SDS011;56996;48.138;11.538;2023-02-19T07:18:04;4.80;;;1.30;;
69730;SDS011;56996;48.138;11.538;2023-02-19T07:20:35;6.00;;;1.40;;
69730;SDS011;56996;48.138;11.538;2023-02-19T07:23:02;5.00;;;1.40;;
69730;SDS011;56996;48.138;11.538;2023-02-19T07:25:29;6.20;;;1.80;;
69730;SDS011;56996;48.138;11.538;2023-02-19T07:27:56;4.70;;;1.40;;
69730;SDS011;56996;48.138;11.538;2023-02-19T07:30:22;5.30;;;1.40;;
69730;SDS011;56996;48.138;11.538;2023-02-19T07:32:49;5.90;;;1.40;;
69730;SDS011;56996;48.138;11.538;2023-02-19T07:35:16;4.90;;;1.40;;
69730;SDS011;56996;48.138;11.538;2023-02-19T07:37:42;5.40;;;1.40;;
69730;SDS011;56996;48.138;11.538;2023-02-19T07:40:09;4.20;;;1.10;;
69730;SDS011;56996;48.138;11.538;2023-02-19T07:42:36;6.20;;;1.50;;
69730;SDS011;56996;48.138;11.538;2023-02-19T07:45:04;5.20;;;1.60;;
69730;SDS011;56996;48.138;11.538;2023-02-19T07:47:31;4.50;;;1.30;;
69730;SDS011;56996;48.138;11.538;2023-02-19T07:49:58;4.80;;;1.50;;
69730;SDS011;56996;48.138;11.538;2023-02-19T07:52:24;3.70;;;1.00;;
69730;SDS011;56996;48.138;11.538;2023-02-19T07:54:51;4.30;;;1.50;;
69730;SDS011;56996;48.138;11.538;2023-02-19T07:57:18;5.00;;;1.60;;
69730;SDS011;56996;48.138;11.538;2023-02-19T07:59:45;4.60;;;1.50;;
69730;SDS011;56996;48.138;11.538;2023-02-19T08:02:18;4.90;;;1.50;;
69730;SDS011;56996;48.138;11.538;2023-02-19T08:05:05;4.60;;;1.40;;
69730;SDS011;56996;48.138;11.538;2023-02-19T08:07:33;4.40;;;1.40;;
69730;SDS011;56996;48.138;11.538;2023-02-19T08:10:02;5.30;;;1.70;;
69730;SDS011;56996;48.138;11.538;2023-02-19T08:12:56;5.70;;;1.60;;
69730;SDS011;56996;48.138;11.538;2023-02-19T08:15:45;5.30;;;1.70;;
69730;SDS011;56996;48.138;11.538;2023-02-19T08:18:13;3.50;;;1.00;;
69730;SDS011;56996;48.138;11.538;2023-02-19T08:20:40;4.50;;;1.20;;
69730;SDS011;56996;48.138;11.538;2023-02-19T08:23:08;4.00;;;1.30;;
69730;SDS011;56996;48.138;11.538;2023-02-19T08:25:35;3.90;;;1.10;;
69730;SDS011;56996;48.138;11.538;2023-02-19T08:28:03;6.20;;;1.60;;
69730;SDS011;56996;48.138;11.538;2023-02-19T08:30:31;3.80;;;1.40;;
69730;SDS011;56996;48.138;11.538;2023-02-19T08:33:00;5.70;;;1.40;;
69730;SDS011;56996;48.138;11.538;2023-02-19T08:35:28;3.80;;;1.20;;
69730;SDS011;56996;48.138;11.538;2023-02-19T08:37:57;4.90;;;1.30;;
69730;SDS011;56996;48.138;11.538;2023-02-19T08:40:25;3.40;;;0.90;;
69730;SDS011;56996;48.138;11.538;2023-02-19T08:42:52;4.20;;;1.10;;
69730;SDS011;56996;48.138;11.538;2023-02-19T08:45:20;3.80;;;1.10;;
69730;SDS011;56996;48.138;11.538;2023-02-19T08:47:48;2.50;;;0.70;;
69730;SDS011;56996;48.138;11.538;2023-02-19T08:50:15;4.80;;;1.10;;
69730;SDS011;56996;48.138;11.538;2023-02-19T08:52:42;4.50;;;1.30;;
69730;SDS011;56996;48.138;11.538;2023-02-19T08:55:08;4.00;;;1.00;;
69730;SDS011;56996;48.138;11.538;2023-02-19T08:57:36;4.00;;;1.20;;
69730;SDS011;56996;48.138;11.538;2023-02-19T09:00:06;5.20;;;1.20;;
69730;SDS011;56996;48.138;11.538;2023-02-19T09:02:34;5.60;;;1.30;;
69730;SDS011;56996;48.138;11.538;2023-02-19T09:05:01;4.10;;;1.20;;
69730;SDS011;56996;48.138;11.538;2023-02-19T09:07:28;5.20;;;1.50;;
69730;SDS011;56996;48.138;11.538;2023-02-19T09:09:54;3.20;;;0.80;;
69730;SDS011;56996;48.138;11.538;2023-02-19T09:12:21;4.30;;;1.30;;
69730;SDS011;56996;48.138;11.538;2023-02-19T09:14:48;5.50;;;1.50;;
69730;SDS011;56996;48.138;11.538;2023-02-19T09:17:14;4.10;;;1.00;;
69730;SDS011;56996;48.138;11.538;2023-02-19T09:19:41;4.60;;;1.40;;
69730;SDS011;56996;48.138;11.538;2023-02-19T09:22:08;4.40;;;1.20;;
69730;SDS011;56996;48.138;11.538;2023-02-19T09:24:35;4.30;;;1.10;;
69730;SDS011;56996;48.138;11.538;2023-02-19T09:27:02;3.50;;;1.00;;
69730;SDS011;56996;48.138;11.538;2023-02-19T09:29:29;3.30;;;0.80;;
69730;SDS011;56996;48.138;11.538;2023-02-19T09:31:57;3.50;;;0.90;;
69730;SDS011;56996;48.138;11.538;2023-02-19T09:34:26;4.80;;;1.00;;
69730;SDS011;56996;48.138;11.538;2023-02-19T09:36:54;3.00;;;0.80;;
69730;SDS011;56996;48.138;11.538;2023-02-19T09:39:21;3.80;;;1.00;;
69730;SDS011;56996;48.138;11.538;2023-02-19T09:41:51;3.20;;;0.80;;
69730;SDS011;56996;48.138;11.538;2023-02-19T09:44:27;2.00;;;0.50;;
69730;SDS011;56996;48.138;11.538;2023-02-19T09:46:55;1.70;;;0.40;;
69730;SDS011;56996;48.138;11.538;2023-02-19T09:49:37;1.50;;;0.20;;
69730;SDS011;56996;48.138;11.538;2023-02-19T09:52:10;0.70;;;0.20;;
69730;SDS011;56996;48.138;11.538;2023-02-19T09:54:40;0.70;;;0.20;;
69730;SDS011;56996;48.138;11.538;2023-02-19T09:57:13;1.90;;;0.30;;
69730;SDS011;56996;48.138;11.538;2023-02-19T09:59:48;3.00;;;0.30;;
69730;SDS011;56996;48.138;11.538;2023-02-19T10:02:19;1.60;;;0.20;;
69730;SDS011;56996;48.138;11.538;2023-02-19T10:04:48;2.90;;;0.40;;
69730;SDS011;56996;48.138;11.538;2023-02-19T10:07:24;1.50;;;0.30;;
69730;SDS011;56996;48.138;11.538;2023-02-19T10:09:59;2.30;;;0.40;;
69730;SDS011;56996;48.138;11.538;2023-02-19T10:12:30;2.40;;;0.50;;
69730;SDS011;56996;48.138;11.538;2023-02-19T10:17:48;2.20;;;0.50;;
69730;SDS011;56996;48.138;11.538;2023-02-19T10:20:17;4.00;;;0.50;;
69730;SDS011;56996;48.138;11.538;2023-02-19T10:22:45;3.60;;;0.60;;
69730;SDS011;56996;48.138;11.538;2023-02-19T10:25:15;1.90;;;0.50;;
69730;SDS011;56996;48.138;11.538;2023-02-19T10:27:42;2.10;;;0.60;;
69730;SDS011;56996;48.138;11.538;2023-02-19T10:30:19;1.50;;;0.40;;
69730;SDS011;56996;48.138;11.538;2023-02-19T10:38:00;4.90;;;1.30;;
69730;SDS011;56996;48.138;11.538;2023-02-19T10:40:28;4.10;;;0.80;;
69730;SDS011;56996;48.138;11.538;2023-02-19T10:43:00;3.30;;;0.60;;
69730;SDS011;56996;48.138;11.538;2023-02-19T10:45:39;3.00;;;0.70;;
69730;SDS011;56996;48.138;11.538;2023-02-19T10:48:27;2.00;;;0.70;;
69730;SDS011;56996;48.138;11.538;2023-02-19T10:51:10;3.60;;;0.90;;
69730;SDS011;56996;48.138;11.538;2023-02-19T10:53:46;2.50;;;0.60;;
69730;SDS011;56996;48.138;11.538;2023-02-19T10:56:49;4.80;;;0.80;;
69730;SDS011;56996;48.138;11.538;2023-02-19T10:59:28;2.70;;;0.60;;
69730;SDS011;56996;48.138;11.538;2023-02-19T11:04:25;1.30;;;0.40;;
69730;SDS011;56996;48.138;11.538;2023-02-19T11:07:20;3.70;;;0.60;;
69730;SDS011;56996;48.138;11.538;2023-02-19T11:09:48;1.10;;;0.30;;
69730;SDS011;56996;48.138;11.538;2023-02-19T11:12:24;2.50;;;0.40;;
69730;SDS011;56996;48.138;11.538;2023-02-19T11:14:54;2.30;;;0.40;;
69730;SDS011;56996;48.138;11.538;2023-02-19T11:17:26;1.30;;;0.30;;
69730;SDS011;56996;48.138;11.538;2023-02-19T11:22:32;1.90;;;0.40;;
69730;SDS011;56996;48.138;11.538;2023-02-19T11:25:19;1.60;;;0.30;;
69730;SDS011;56996;48.138;11.538;2023-02-19T11:27:54;1.30;;;0.30;;
69730;SDS011;56996;48.138;11.538;2023-02-19T11:38:49;1.10;;;0.30;;
69730;SDS011;56996;48.138;11.538;2023-02-19T11:41:50;1.10;;;0.30;;
69730;SDS011;56996;48.138;11.538;2023-02-19T12:07:42;0.80;;;0.20;;
69730;SDS011;56996;48.138;11.538;2023-02-19T12:19:16;2.60;;;0.50;;
69730;SDS011;56996;48.138;11.538;2023-02-19T12:25:20;1.70;;;0.30;;
69730;SDS011;56996;48.138;11.538;2023-02-19T12:36:42;1.40;;;0.30;;
69730;SDS011;56996;48.138;11.538;2023-02-19T12:42:19;1.90;;;0.40;;
69730;SDS011;56996;48.138;11.538;2023-02-19T12:45:10;0.90;;;0.30;;
69730;SDS011;56996;48.138;11.538;2023-02-19T12:47:57;1.10;;;0.20;;
69730;SDS011;56996;48.138;11.538;2023-02-19T12:50:36;2.50;;;0.40;;
69730;SDS011;56996;48.138;11.538;2023-02-19T12:53:13;1.50;;;0.40;;
69730;SDS011;56996;48.138;11.538;2023-02-19T12:55:55;1.50;;;0.20;;
69730;SDS011;56996;48.138;11.538;2023-02-19T12:58:54;2.30;;;0.30;;
69730;SDS011;56996;48.138;11.538;2023-02-19T13:01:27;2.10;;;0.40;;
69730;SDS011;56996;48.138;11.538;2023-02-19T13:04:28;1.50;;;0.30;;
69730;SDS011;56996;48.138;11.538;2023-02-19T13:07:03;2.30;;;0.30;;
69730;SDS011;56996;48.138;11.538;2023-02-19T13:09:38;3.20;;;0.40;;
69730;SDS011;56996;48.138;11.538;2023-02-19T13:12:34;1.80;;;0.30;;
69730;SDS011;56996;48.138;11.538;2023-02-19T13:15:12;2.20;;;0.50;;
69730;SDS011;56996;48.138;11.538;2023-02-19T13:17:52;2.20;;;0.40;;
69730;SDS011;56996;48.138;11.538;2023-02-19T13:20:34;1.30;;;0.30;;
69730;SDS011;56996;48.138;11.538;2023-02-19T13:23:22;3.40;;;0.50;;
69730;SDS011;56996;48.138;11.538;2023-02-19T13:34:46;3.20;;;0.50;;
69730;SDS011;56996;48.138;11.538;2023-02-19T13:37:21;3.30;;;0.50;;
69730;SDS011;56996;48.138;11.538;2023-02-19T13:39:53;1.80;;;0.40;;
69730;SDS011;56996;48.138;11.538;2023-02-19T13:42:32;1.90;;;0.30;;
69730;SDS011;56996;48.138;11.538;2023-02-19T13:45:02;2.20;;;0.40;;
69730;SDS011;56996;48.138;11.538;2023-02-19T13:59:11;2.00;;;0.40;;
69730;SDS011;56996;48.138;11.538;2023-02-19T14:14:50;3.20;;;0.60;;
69730;SDS011;56996;48.138;11.538;2023-02-19T14:22:47;2.50;;;0.30;;
69730;SDS011;56996;48.138;11.538;2023-02-19T14:28:01;2.30;;;0.50;;
69730;SDS011;56996;48.138;11.538;2023-02-19T14:30:30;2.60;;;0.60;;
69730;SDS011;56996;48.138;11.538;2023-02-19T14:33:02;4.60;;;0.70;;
69730;SDS011;56996;48.138;11.538;2023-02-19T14:35:41;2.90;;;0.50;;
69730;SDS011;56996;48.138;11.538;2023-02-19T14:38:19;3.20;;;0.50;;
69730;SDS011;56996;48.138;11.538;2023-02-19T14:40:48;1.30;;;0.40;;
69730;SDS011;56996;48.138;11.538;2023-02-19T14:43:18;3.10;;;0.50;;
69730;SDS011;56996;48.138;11.538;2023-02-19T14:48:27;3.60;;;0.70;;
69730;SDS011;56996;48.138;11.538;2023-02-19T14:51:07;3.20;;;0.60;;
69730;SDS011;56996;48.138;11.538;2023-02-19T14:53:57;1.50;;;0.30;;
69730;SDS011;56996;48.138;11.538;2023-02-19T14:56:31;3.00;;;0.50;;
69730;SDS011;56996;48.138;11.538;2023-02-19T15:01:39;4.00;;;0.50;;
69730;SDS011;56996;48.138;11.538;2023-02-19T15:04:20;2.10;;;0.40;;
69730;SDS011;56996;48.138;11.538;2023-02-19T15:06:49;2.60;;;0.40;;
69730;SDS011;56996;48.138;11.538;2023-02-19T15:09:19;2.60;;;0.50;;
69730;SDS011;56996;48.138;11.538;2023-02-19T15:11:47;3.80;;;0.80;;
69730;SDS011;56996;48.138;11.538;2023-02-19T15:14:22;3.60;;;0.80;;
69730;SDS011;56996;48.138;11.538;2023-02-19T15:16:56;4.20;;;0.80;;
69730;SDS011;56996;48.138;11.538;2023-02-19T15:19:28;4.00;;;0.70;;
69730;SDS011;56996;48.138;11.538;2023-02-19T15:21:58;2.00;;;0.40;;
69730;SDS011;56996;48.138;11.538;2023-02-19T15:24:25;3.00;;;0.60;;
69730;SDS011;56996;48.138;11.538;2023-02-19T15:26:54;3.70;;;0.70;;
69730;SDS011;56996;48.138;11.538;2023-02-19T15:29:23;3.50;;;0.70;;
69730;SDS011;56996;48.138;11.538;2023-02-19T15:31:59;4.00;;;0.70;;
69730;SDS011;56996;48.138;11.538;2023-02-19T15:34:28;4.80;;;0.70;;
69730;SDS011;56996;48.138;11.538;2023-02-19T15:37:03;4.40;;;0.80;;
69730;SDS011;56996;48.138;11.538;2023-02-19T15:39:40;3.80;;;0.70;;
69730;SDS011;56996;48.138;11.538;2023-02-19T15:42:32;5.40;;;0.80;;
69730;SDS011;56996;48.138;11.538;2023-02-19T15:45:10;4.30;;;0.80;;
69730;SDS011;56996;48.138;11.538;2023-02-19T15:48:05;3.30;;;0.50;;
69730;SDS011;56996;48.138;11.538;2023-02-19T15:50:38;4.60;;;0.70;;
69730;SDS011;56996;48.138;11.538;2023-02-19T15:53:22;2.00;;;0.40;;
69730;SDS011;56996;48.138;11.538;2023-02-19T15:56:02;4.20;;;0.70;;
69730;SDS011;56996;48.138;11.538;2023-02-19T15:58:37;3.20;;;0.70;;
69730;SDS011;56996;48.138;11.538;2023-02-19T16:01:31;3.80;;;0.70;;
69730;SDS011;56996;48.138;11.538;2023-02-19T16:04:01;3.80;;;0.70;;
69730;SDS011;56996;48.138;11.538;2023-02-19T16:06:28;4.30;;;0.60;;
69730;SDS011;56996;48.138;11.538;2023-02-19T16:09:05;3.70;;;0.70;;
69730;SDS011;56996;48.138;11.538;2023-02-19T16:11:36;2.80;;;0.60;;
69730;SDS011;56996;48.138;11.538;2023-02-19T16:16:52;4.80;;;0.60;;
69730;SDS011;56996;48.138;11.538;2023-02-19T16:19:23;4.80;;;0.80;;
69730;SDS011;56996;48.138;11.538;2023-02-19T16:21:54;2.80;;;0.50;;
69730;SDS011;56996;48.138;11.538;2023-02-19T16:24:30;3.70;;;0.60;;
69730;SDS011;56996;48.138;11.538;2023-02-19T16:27:01;3.40;;;0.60;;
69730;SDS011;56996;48.138;11.538;2023-02-19T16:29:31;2.80;;;0.60;;
69730;SDS011;56996;48.138;11.538;2023-02-19T16:32:02;1.20;;;0.40;;
69730;SDS011;56996;48.138;11.538;2023-02-19T16:34:42;4.10;;;0.90;;
69730;SDS011;56996;48.138;11.538;2023-02-19T16:45:29;1.90;;;0.50;;
69730;SDS011;56996;48.138;11.538;2023-02-19T16:47:56;3.40;;;0.70;;
69730;SDS011;56996;48.138;11.538;2023-02-19T16:50:23;6.20;;;1.10;;
69730;SDS011;56996;48.138;11.538;2023-02-19T16:52:54;5.50;;;1.10;;
69730;SDS011;56996;48.138;11.538;2023-02-19T16:55:25;4.30;;;0.80;;
69730;SDS011;56996;48.138;11.538;2023-02-19T16:57:53;5.60;;;1.50;;
69730;SDS011;56996;48.138;11.538;2023-02-19T17:00:28;4.00;;;0.90;;
69730;SDS011;56996;48.138;11.538;2023-02-19T17:03:02;8.20;;;0.80;;
69730;SDS011;56996;48.138;11.538;2023-02-19T17:05:35;4.80;;;0.90;;
69730;SDS011;56996;48.138;11.538;2023-02-19T17:08:28;4.10;;;0.80;;
69730;SDS011;56996;48.138;11.538;2023-02-19T17:10:57;3.90;;;0.80;;
69730;SDS011;56996;48.138;11.538;2023-02-19T17:13:24;4.60;;;0.80;;
69730;SDS011;56996;48.138;11.538;2023-02-19T17:15:52;3.70;;;0.80;;
69730;SDS011;56996;48.138;11.538;2023-02-19T17:18:19;3.00;;;0.70;;
69730;SDS011;56996;48.138;11.538;2023-02-19T17:20:54;3.20;;;0.70;;
69730;SDS011;56996;48.138;11.538;2023-02-19T17:23:24;4.50;;;0.90;;
69730;SDS011;56996;48.138;11.538;2023-02-19T17:25:50;3.50;;;0.70;;
69730;SDS011;56996;48.138;11.538;2023-02-19T17:28:20;2.80;;;0.70;;
69730;SDS011;56996;48.138;11.538;2023-02-19T17:30:46;5.80;;;1.10;;
69730;SDS011;56996;48.138;11.538;2023-02-19T17:33:13;5.70;;;1.10;;
69730;SDS011;56996;48.138;11.538;2023-02-19T17:35:40;3.70;;;0.90;;
69730;SDS011;56996;48.138;11.538;2023-02-19T17:38:10;2.80;;;0.70;;
69730;SDS011;56996;48.138;11.538;2023-02-19T17:40:37;3.70;;;0.70;;
69730;SDS011;56996;48.138;11.538;2023-02-19T17:43:05;3.40;;;0.80;;